<?xml version="1.0" encoding="UTF-8" standalone="no" ?>
<gpx xmlns="http://www.topografix.com/GPX/1/1" creator="CompeGPS" version="1.1" xmlns:xsi="http://www.w3.org/2001/XMLSchema-instance" xsi:schemaLocation="http://www.topografix.com/GPX/1/1 http://www.topografix.com/GPX/1/1/gpx.xsd http://www.garmin.com/xmlschemas/GpxExtensions/v3 http://www.garmin.com/xmlschemas/GpxExtensionsv3.xsd http://www.garmin.com/xmlschemas/TrackPointExtension/v1 http://www.garmin.com/xmlschemas/TrackPointExtensionv1.xsd" xmlns:gpxtpx="http://www.garmin.com/xmlschemas/TrackPointExtension/v1">
  <metadata>
    <link href="http://www.compegps.com">
      <text>CompeGPS TEAM, SL</text>
    </link>
    <time>2014-02-04T13:04:46Z</time>
    <bounds maxlat="43.464789" maxlon="1.648852" minlat="43.449566" minlon="1.621927"/>
  </metadata>
<wpt lat="43.451932" lon="1.626650">
<ele>170</ele>
<name>Depart</name>
</wpt>
<wpt lat="43.453770" lon="1.628720">
<ele>170</ele>
<name>En Saunie</name>
</wpt>
<wpt lat="43.453594" lon="1.647604">
<ele>220</ele>
<name>La Peyrelle</name>
</wpt>
<wpt lat="43.457056" lon="1.648852">
<ele>185</ele>
<name>L Abreuvoir</name>
</wpt>
<wpt lat="43.461616" lon="1.643407">
<ele>185</ele>
<name>Chapelle Ste-Colombe</name>
</wpt>
<wpt lat="43.464753" lon="1.642668">
<ele>180</ele>
<name>Pont Ste-Eulalie</name>
</wpt>
<wpt lat="43.459036" lon="1.621927">
<ele>210</ele>
<name>Lantarese</name>
</wpt>
<trk>
    <name>Baziege Ste-Colombe</name>
    <trkseg>
      <trkpt lat="43.451932" lon="1.626650">
        <ele>161.0</ele>
        <time>2014-02-04T09:16:28Z</time>
      <name>Depart</name>
      </trkpt>
      <trkpt lat="43.451997" lon="1.626787">
        <ele>161.0</ele>
        <time>2014-02-04T09:16:44Z</time>
      </trkpt>
      <trkpt lat="43.452042" lon="1.626909">
        <ele>161.1</ele>
        <time>2014-02-04T09:16:54Z</time>
      </trkpt>
      <trkpt lat="43.452096" lon="1.627044">
        <ele>161.1</ele>
        <time>2014-02-04T09:17:04Z</time>
      </trkpt>
      <trkpt lat="43.452167" lon="1.627149">
        <ele>161.2</ele>
        <time>2014-02-04T09:17:14Z</time>
      </trkpt>
      <trkpt lat="43.452237" lon="1.627252">
        <ele>161.3</ele>
        <time>2014-02-04T09:17:22Z</time>
      </trkpt>
      <trkpt lat="43.452292" lon="1.627365">
        <ele>161.6</ele>
        <time>2014-02-04T09:17:30Z</time>
      </trkpt>
      <trkpt lat="43.452382" lon="1.627482">
        <ele>161.5</ele>
        <time>2014-02-04T09:17:40Z</time>
      </trkpt>
      <trkpt lat="43.452468" lon="1.627581">
        <ele>161.6</ele>
        <time>2014-02-04T09:17:49Z</time>
      </trkpt>
      <trkpt lat="43.452561" lon="1.627681">
        <ele>161.6</ele>
        <time>2014-02-04T09:17:58Z</time>
      </trkpt>
      <trkpt lat="43.452647" lon="1.627783">
        <ele>162.0</ele>
        <time>2014-02-04T09:18:08Z</time>
      </trkpt>
      <trkpt lat="43.452747" lon="1.627909">
        <ele>162.3</ele>
        <time>2014-02-04T09:18:18Z</time>
      </trkpt>
      <trkpt lat="43.452839" lon="1.628022">
        <ele>162.7</ele>
        <time>2014-02-04T09:18:26Z</time>
      </trkpt>
      <trkpt lat="43.452954" lon="1.628111">
        <ele>162.7</ele>
        <time>2014-02-04T09:18:35Z</time>
      </trkpt>
      <trkpt lat="43.453032" lon="1.628177">
        <ele>162.8</ele>
        <time>2014-02-04T09:18:43Z</time>
      </trkpt>
      <trkpt lat="43.453123" lon="1.628247">
        <ele>162.9</ele>
        <time>2014-02-04T09:18:52Z</time>
      </trkpt>
      <trkpt lat="43.453237" lon="1.628347">
        <ele>163.3</ele>
        <time>2014-02-04T09:19:03Z</time>
      </trkpt>
      <trkpt lat="43.453359" lon="1.628434">
        <ele>163.8</ele>
        <time>2014-02-04T09:19:15Z</time>
      </trkpt>
      <trkpt lat="43.453474" lon="1.628516">
        <ele>164.2</ele>
        <time>2014-02-04T09:19:26Z</time>
      </trkpt>
      <trkpt lat="43.453554" lon="1.628602">
        <ele>164.7</ele>
        <time>2014-02-04T09:19:36Z</time>
      </trkpt>
      <trkpt lat="43.453647" lon="1.628661">
        <ele>165.2</ele>
        <time>2014-02-04T09:19:44Z</time>
      </trkpt>
      <trkpt lat="43.453770" lon="1.628720">
        <ele>165.4</ele>
        <time>2014-02-04T09:19:53Z</time>
        <name>En Saunie</name>
      </trkpt>
      <trkpt lat="43.453827" lon="1.628772">
        <ele>165.7</ele>
        <time>2014-02-04T09:20:54Z</time>
      </trkpt>
      <trkpt lat="43.453893" lon="1.628843">
        <ele>165.8</ele>
        <time>2014-02-04T09:21:02Z</time>
      </trkpt>
      <trkpt lat="43.453968" lon="1.628912">
        <ele>166.3</ele>
        <time>2014-02-04T09:21:10Z</time>
      </trkpt>
      <trkpt lat="43.454045" lon="1.628974">
        <ele>166.7</ele>
        <time>2014-02-04T09:21:17Z</time>
      </trkpt>
      <trkpt lat="43.454132" lon="1.629077">
        <ele>167.4</ele>
        <time>2014-02-04T09:21:26Z</time>
      </trkpt>
      <trkpt lat="43.454205" lon="1.629189">
        <ele>167.8</ele>
        <time>2014-02-04T09:21:34Z</time>
      </trkpt>
      <trkpt lat="43.454260" lon="1.629330">
        <ele>168.4</ele>
        <time>2014-02-04T09:21:42Z</time>
      </trkpt>
      <trkpt lat="43.454235" lon="1.629468">
        <ele>169.0</ele>
        <time>2014-02-04T09:21:52Z</time>
      </trkpt>
      <trkpt lat="43.454186" lon="1.629588">
        <ele>170.2</ele>
        <time>2014-02-04T09:22:01Z</time>
      </trkpt>
      <trkpt lat="43.454137" lon="1.629727">
        <ele>171.4</ele>
        <time>2014-02-04T09:22:10Z</time>
      </trkpt>
      <trkpt lat="43.454071" lon="1.629852">
        <ele>172.9</ele>
        <time>2014-02-04T09:23:10Z</time>
      </trkpt>
      <trkpt lat="43.454027" lon="1.629976">
        <ele>173.4</ele>
        <time>2014-02-04T09:23:17Z</time>
      </trkpt>
      <trkpt lat="43.453970" lon="1.630097">
        <ele>174.0</ele>
        <time>2014-02-04T09:23:25Z</time>
      </trkpt>
      <trkpt lat="43.453916" lon="1.630211">
        <ele>174.1</ele>
        <time>2014-02-04T09:23:33Z</time>
      </trkpt>
      <trkpt lat="43.453860" lon="1.630320">
        <ele>174.3</ele>
        <time>2014-02-04T09:23:41Z</time>
      </trkpt>
      <trkpt lat="43.453810" lon="1.630439">
        <ele>174.6</ele>
        <time>2014-02-04T09:23:48Z</time>
      </trkpt>
      <trkpt lat="43.453745" lon="1.630554">
        <ele>175.0</ele>
        <time>2014-02-04T09:23:56Z</time>
      </trkpt>
      <trkpt lat="43.453691" lon="1.630668">
        <ele>175.3</ele>
        <time>2014-02-04T09:24:04Z</time>
      </trkpt>
      <trkpt lat="43.453635" lon="1.630779">
        <ele>175.3</ele>
        <time>2014-02-04T09:24:11Z</time>
      </trkpt>
      <trkpt lat="43.453590" lon="1.630917">
        <ele>175.4</ele>
        <time>2014-02-04T09:24:19Z</time>
      </trkpt>
      <trkpt lat="43.453541" lon="1.631035">
        <ele>175.6</ele>
        <time>2014-02-04T09:24:34Z</time>
      </trkpt>
      <trkpt lat="43.453489" lon="1.631152">
        <ele>175.6</ele>
        <time>2014-02-04T09:24:41Z</time>
      </trkpt>
      <trkpt lat="43.453422" lon="1.631281">
        <ele>175.7</ele>
        <time>2014-02-04T09:24:49Z</time>
      </trkpt>
      <trkpt lat="43.453360" lon="1.631398">
        <ele>175.9</ele>
        <time>2014-02-04T09:24:56Z</time>
      </trkpt>
      <trkpt lat="43.453308" lon="1.631516">
        <ele>176.2</ele>
        <time>2014-02-04T09:25:04Z</time>
      </trkpt>
      <trkpt lat="43.453259" lon="1.631627">
        <ele>176.3</ele>
        <time>2014-02-04T09:25:11Z</time>
      </trkpt>
      <trkpt lat="43.453198" lon="1.631762">
        <ele>176.5</ele>
        <time>2014-02-04T09:25:19Z</time>
      </trkpt>
      <trkpt lat="43.453148" lon="1.631888">
        <ele>176.9</ele>
        <time>2014-02-04T09:25:26Z</time>
      </trkpt>
      <trkpt lat="43.453098" lon="1.632005">
        <ele>177.3</ele>
        <time>2014-02-04T09:25:32Z</time>
      </trkpt>
      <trkpt lat="43.453055" lon="1.632122">
        <ele>177.6</ele>
        <time>2014-02-04T09:25:40Z</time>
      </trkpt>
      <trkpt lat="43.453007" lon="1.632230">
        <ele>178.0</ele>
        <time>2014-02-04T09:25:47Z</time>
      </trkpt>
      <trkpt lat="43.452948" lon="1.632344">
        <ele>178.3</ele>
        <time>2014-02-04T09:25:54Z</time>
      </trkpt>
      <trkpt lat="43.452882" lon="1.632450">
        <ele>178.6</ele>
        <time>2014-02-04T09:26:01Z</time>
      </trkpt>
      <trkpt lat="43.452818" lon="1.632564">
        <ele>178.7</ele>
        <time>2014-02-04T09:26:08Z</time>
      </trkpt>
      <trkpt lat="43.452775" lon="1.632676">
        <ele>178.7</ele>
        <time>2014-02-04T09:26:15Z</time>
      </trkpt>
      <trkpt lat="43.452725" lon="1.632790">
        <ele>178.7</ele>
        <time>2014-02-04T09:26:22Z</time>
      </trkpt>
      <trkpt lat="43.452665" lon="1.632916">
        <ele>179.1</ele>
        <time>2014-02-04T09:26:30Z</time>
      </trkpt>
      <trkpt lat="43.452612" lon="1.633036">
        <ele>179.4</ele>
        <time>2014-02-04T09:26:38Z</time>
      </trkpt>
      <trkpt lat="43.452553" lon="1.633143">
        <ele>179.6</ele>
        <time>2014-02-04T09:26:46Z</time>
      </trkpt>
      <trkpt lat="43.452500" lon="1.633246">
        <ele>179.9</ele>
        <time>2014-02-04T09:26:54Z</time>
      </trkpt>
      <trkpt lat="43.452442" lon="1.633359">
        <ele>180.0</ele>
        <time>2014-02-04T09:27:02Z</time>
      </trkpt>
      <trkpt lat="43.452393" lon="1.633465">
        <ele>180.2</ele>
        <time>2014-02-04T09:27:09Z</time>
      </trkpt>
      <trkpt lat="43.452334" lon="1.633578">
        <ele>180.4</ele>
        <time>2014-02-04T09:27:17Z</time>
      </trkpt>
      <trkpt lat="43.452272" lon="1.633676">
        <ele>180.8</ele>
        <time>2014-02-04T09:27:25Z</time>
      </trkpt>
      <trkpt lat="43.452201" lon="1.633786">
        <ele>181.2</ele>
        <time>2014-02-04T09:27:33Z</time>
      </trkpt>
      <trkpt lat="43.452138" lon="1.633903">
        <ele>181.1</ele>
        <time>2014-02-04T09:27:41Z</time>
      </trkpt>
      <trkpt lat="43.452075" lon="1.633996">
        <ele>181.3</ele>
        <time>2014-02-04T09:27:48Z</time>
      </trkpt>
      <trkpt lat="43.452017" lon="1.634094">
        <ele>181.4</ele>
        <time>2014-02-04T09:27:55Z</time>
      </trkpt>
      <trkpt lat="43.451971" lon="1.634210">
        <ele>181.7</ele>
        <time>2014-02-04T09:28:03Z</time>
      </trkpt>
      <trkpt lat="43.451913" lon="1.634325">
        <ele>181.8</ele>
        <time>2014-02-04T09:28:10Z</time>
      </trkpt>
      <trkpt lat="43.451858" lon="1.634449">
        <ele>182.1</ele>
        <time>2014-02-04T09:28:18Z</time>
      </trkpt>
      <trkpt lat="43.451809" lon="1.634569">
        <ele>182.3</ele>
        <time>2014-02-04T09:28:27Z</time>
      </trkpt>
      <trkpt lat="43.451749" lon="1.634697">
        <ele>182.6</ele>
        <time>2014-02-04T09:28:36Z</time>
      </trkpt>
      <trkpt lat="43.451700" lon="1.634820">
        <ele>183.1</ele>
        <time>2014-02-04T09:28:44Z</time>
      </trkpt>
      <trkpt lat="43.451643" lon="1.634937">
        <ele>183.7</ele>
        <time>2014-02-04T09:28:52Z</time>
      </trkpt>
      <trkpt lat="43.451599" lon="1.635053">
        <ele>184.0</ele>
        <time>2014-02-04T09:29:00Z</time>
      </trkpt>
      <trkpt lat="43.451555" lon="1.635171">
        <ele>184.5</ele>
        <time>2014-02-04T09:29:08Z</time>
      </trkpt>
      <trkpt lat="43.451498" lon="1.635293">
        <ele>185.1</ele>
        <time>2014-02-04T09:29:17Z</time>
      </trkpt>
      <trkpt lat="43.451453" lon="1.635416">
        <ele>185.5</ele>
        <time>2014-02-04T09:29:25Z</time>
      </trkpt>
      <trkpt lat="43.451410" lon="1.635544">
        <ele>185.8</ele>
        <time>2014-02-04T09:29:33Z</time>
      </trkpt>
      <trkpt lat="43.451364" lon="1.635689">
        <ele>186.0</ele>
        <time>2014-02-04T09:29:42Z</time>
      </trkpt>
      <trkpt lat="43.451313" lon="1.635811">
        <ele>186.6</ele>
        <time>2014-02-04T09:29:50Z</time>
      </trkpt>
      <trkpt lat="43.451293" lon="1.635960">
        <ele>187.4</ele>
        <time>2014-02-04T09:30:04Z</time>
      </trkpt>
      <trkpt lat="43.451300" lon="1.636085">
        <ele>188.1</ele>
        <time>2014-02-04T09:30:19Z</time>
      </trkpt>
      <trkpt lat="43.451340" lon="1.636227">
        <ele>189.5</ele>
        <time>2014-02-04T09:30:36Z</time>
      </trkpt>
      <trkpt lat="43.451319" lon="1.636374">
        <ele>190.5</ele>
        <time>2014-02-04T09:30:48Z</time>
      </trkpt>
      <trkpt lat="43.451310" lon="1.636524">
        <ele>191.6</ele>
        <time>2014-02-04T09:30:59Z</time>
      </trkpt>
      <trkpt lat="43.451287" lon="1.636659">
        <ele>192.9</ele>
        <time>2014-02-04T09:31:10Z</time>
      </trkpt>
      <trkpt lat="43.451277" lon="1.636807">
        <ele>194.2</ele>
        <time>2014-02-04T09:31:23Z</time>
      </trkpt>
      <trkpt lat="43.451266" lon="1.636961">
        <ele>195.7</ele>
        <time>2014-02-04T09:31:36Z</time>
      </trkpt>
      <trkpt lat="43.451235" lon="1.637117">
        <ele>196.8</ele>
        <time>2014-02-04T09:31:48Z</time>
      </trkpt>
      <trkpt lat="43.451206" lon="1.637257">
        <ele>198.0</ele>
        <time>2014-02-04T09:31:59Z</time>
      </trkpt>
      <trkpt lat="43.451181" lon="1.637385">
        <ele>199.2</ele>
        <time>2014-02-04T09:32:09Z</time>
      </trkpt>
      <trkpt lat="43.451154" lon="1.637509">
        <ele>200.4</ele>
        <time>2014-02-04T09:32:21Z</time>
      </trkpt>
      <trkpt lat="43.451135" lon="1.637663">
        <ele>201.5</ele>
        <time>2014-02-04T09:32:32Z</time>
      </trkpt>
      <trkpt lat="43.451113" lon="1.637798">
        <ele>202.1</ele>
        <time>2014-02-04T09:32:41Z</time>
      </trkpt>
      <trkpt lat="43.451091" lon="1.637943">
        <ele>203.1</ele>
        <time>2014-02-04T09:32:50Z</time>
      </trkpt>
      <trkpt lat="43.451081" lon="1.638056">
        <ele>204.5</ele>
        <time>2014-02-04T09:34:59Z</time>
      </trkpt>
      <trkpt lat="43.451096" lon="1.638194">
        <ele>205.4</ele>
        <time>2014-02-04T09:35:07Z</time>
      </trkpt>
      <trkpt lat="43.451160" lon="1.638323">
        <ele>206.9</ele>
        <time>2014-02-04T09:35:43Z</time>
      </trkpt>
      <trkpt lat="43.451240" lon="1.638409">
        <ele>207.9</ele>
        <time>2014-02-04T09:35:52Z</time>
      </trkpt>
      <trkpt lat="43.451323" lon="1.638491">
        <ele>210.0</ele>
        <time>2014-02-04T09:36:04Z</time>
      </trkpt>
      <trkpt lat="43.451367" lon="1.638600">
        <ele>211.8</ele>
        <time>2014-02-04T09:36:33Z</time>
      </trkpt>
      <trkpt lat="43.451344" lon="1.638735">
        <ele>212.3</ele>
        <time>2014-02-04T09:36:45Z</time>
      </trkpt>
      <trkpt lat="43.451289" lon="1.638838">
        <ele>212.9</ele>
        <time>2014-02-04T09:36:55Z</time>
      </trkpt>
      <trkpt lat="43.451234" lon="1.638935">
        <ele>212.9</ele>
        <time>2014-02-04T09:37:05Z</time>
      </trkpt>
      <trkpt lat="43.451192" lon="1.639042">
        <ele>213.0</ele>
        <time>2014-02-04T09:37:15Z</time>
      </trkpt>
      <trkpt lat="43.451142" lon="1.639187">
        <ele>213.3</ele>
        <time>2014-02-04T09:37:25Z</time>
      </trkpt>
      <trkpt lat="43.451082" lon="1.639314">
        <ele>213.9</ele>
        <time>2014-02-04T09:37:34Z</time>
      </trkpt>
      <trkpt lat="43.451030" lon="1.639413">
        <ele>213.9</ele>
        <time>2014-02-04T09:38:48Z</time>
      </trkpt>
      <trkpt lat="43.450974" lon="1.639517">
        <ele>214.4</ele>
        <time>2014-02-04T09:38:55Z</time>
      </trkpt>
      <trkpt lat="43.450908" lon="1.639603">
        <ele>214.2</ele>
        <time>2014-02-04T09:39:02Z</time>
      </trkpt>
      <trkpt lat="43.450841" lon="1.639698">
        <ele>213.7</ele>
        <time>2014-02-04T09:39:10Z</time>
      </trkpt>
      <trkpt lat="43.450780" lon="1.639790">
        <ele>213.5</ele>
        <time>2014-02-04T09:39:17Z</time>
      </trkpt>
      <trkpt lat="43.450708" lon="1.639894">
        <ele>213.2</ele>
        <time>2014-02-04T09:39:25Z</time>
      </trkpt>
      <trkpt lat="43.450648" lon="1.639997">
        <ele>212.7</ele>
        <time>2014-02-04T09:39:32Z</time>
      </trkpt>
      <trkpt lat="43.450577" lon="1.640102">
        <ele>212.2</ele>
        <time>2014-02-04T09:39:40Z</time>
      </trkpt>
      <trkpt lat="43.450514" lon="1.640210">
        <ele>211.5</ele>
        <time>2014-02-04T09:39:48Z</time>
      </trkpt>
      <trkpt lat="43.450458" lon="1.640313">
        <ele>211.0</ele>
        <time>2014-02-04T09:39:56Z</time>
      </trkpt>
      <trkpt lat="43.450404" lon="1.640430">
        <ele>210.5</ele>
        <time>2014-02-04T09:40:04Z</time>
      </trkpt>
      <trkpt lat="43.450344" lon="1.640548">
        <ele>210.1</ele>
        <time>2014-02-04T09:40:11Z</time>
      </trkpt>
      <trkpt lat="43.450279" lon="1.640656">
        <ele>209.5</ele>
        <time>2014-02-04T09:40:19Z</time>
      </trkpt>
      <trkpt lat="43.450210" lon="1.640753">
        <ele>209.2</ele>
        <time>2014-02-04T09:40:27Z</time>
      </trkpt>
      <trkpt lat="43.450139" lon="1.640863">
        <ele>209.4</ele>
        <time>2014-02-04T09:40:36Z</time>
      </trkpt>
      <trkpt lat="43.450064" lon="1.640959">
        <ele>209.6</ele>
        <time>2014-02-04T09:40:44Z</time>
      </trkpt>
      <trkpt lat="43.449993" lon="1.641069">
        <ele>210.1</ele>
        <time>2014-02-04T09:40:52Z</time>
      </trkpt>
      <trkpt lat="43.449929" lon="1.641188">
        <ele>210.5</ele>
        <time>2014-02-04T09:41:01Z</time>
      </trkpt>
      <trkpt lat="43.449872" lon="1.641297">
        <ele>210.7</ele>
        <time>2014-02-04T09:41:09Z</time>
      </trkpt>
      <trkpt lat="43.449818" lon="1.641420">
        <ele>211.2</ele>
        <time>2014-02-04T09:41:17Z</time>
      </trkpt>
      <trkpt lat="43.449773" lon="1.641557">
        <ele>211.8</ele>
        <time>2014-02-04T09:41:25Z</time>
      </trkpt>
      <trkpt lat="43.449742" lon="1.641675">
        <ele>211.9</ele>
        <time>2014-02-04T09:41:32Z</time>
      </trkpt>
      <trkpt lat="43.449717" lon="1.641804">
        <ele>211.8</ele>
        <time>2014-02-04T09:41:41Z</time>
      </trkpt>
      <trkpt lat="43.449674" lon="1.641925">
        <ele>211.6</ele>
        <time>2014-02-04T09:41:50Z</time>
      </trkpt>
      <trkpt lat="43.449636" lon="1.642054">
        <ele>211.8</ele>
        <time>2014-02-04T09:42:00Z</time>
      </trkpt>
      <trkpt lat="43.449595" lon="1.642174">
        <ele>211.7</ele>
        <time>2014-02-04T09:42:09Z</time>
      </trkpt>
      <trkpt lat="43.449565" lon="1.642195">
        <ele>211.1</ele>
        <time>2014-02-04T09:43:47Z</time>
      </trkpt>
      <trkpt lat="43.449582" lon="1.642351">
        <ele>210.9</ele>
        <time>2014-02-04T09:43:58Z</time>
      </trkpt>
      <trkpt lat="43.449664" lon="1.642432">
        <ele>211.6</ele>
        <time>2014-02-04T09:44:10Z</time>
      </trkpt>
      <trkpt lat="43.449769" lon="1.642483">
        <ele>213.3</ele>
        <time>2014-02-04T09:44:26Z</time>
      </trkpt>
      <trkpt lat="43.449874" lon="1.642508">
        <ele>213.9</ele>
        <time>2014-02-04T09:44:38Z</time>
      </trkpt>
      <trkpt lat="43.449963" lon="1.642556">
        <ele>214.7</ele>
        <time>2014-02-04T09:44:47Z</time>
      </trkpt>
      <trkpt lat="43.450054" lon="1.642606">
        <ele>215.6</ele>
        <time>2014-02-04T09:44:56Z</time>
      </trkpt>
      <trkpt lat="43.450142" lon="1.642669">
        <ele>216.5</ele>
        <time>2014-02-04T09:45:05Z</time>
      </trkpt>
      <trkpt lat="43.450237" lon="1.642729">
        <ele>217.1</ele>
        <time>2014-02-04T09:45:14Z</time>
      </trkpt>
      <trkpt lat="43.450320" lon="1.642779">
        <ele>217.8</ele>
        <time>2014-02-04T09:45:22Z</time>
      </trkpt>
      <trkpt lat="43.450413" lon="1.642842">
        <ele>218.5</ele>
        <time>2014-02-04T09:45:31Z</time>
      </trkpt>
      <trkpt lat="43.450499" lon="1.642914">
        <ele>219.1</ele>
        <time>2014-02-04T09:45:39Z</time>
      </trkpt>
      <trkpt lat="43.450567" lon="1.643003">
        <ele>219.7</ele>
        <time>2014-02-04T09:45:47Z</time>
      </trkpt>
      <trkpt lat="43.450625" lon="1.643105">
        <ele>220.3</ele>
        <time>2014-02-04T09:45:55Z</time>
      </trkpt>
      <trkpt lat="43.450670" lon="1.643217">
        <ele>220.6</ele>
        <time>2014-02-04T09:46:03Z</time>
      </trkpt>
      <trkpt lat="43.450715" lon="1.643333">
        <ele>220.9</ele>
        <time>2014-02-04T09:46:12Z</time>
      </trkpt>
      <trkpt lat="43.450756" lon="1.643455">
        <ele>221.3</ele>
        <time>2014-02-04T09:46:21Z</time>
      </trkpt>
      <trkpt lat="43.450795" lon="1.643576">
        <ele>221.2</ele>
        <time>2014-02-04T09:46:30Z</time>
      </trkpt>
      <trkpt lat="43.450832" lon="1.643697">
        <ele>221.2</ele>
        <time>2014-02-04T09:46:39Z</time>
      </trkpt>
      <trkpt lat="43.450902" lon="1.643811">
        <ele>221.6</ele>
        <time>2014-02-04T09:47:16Z</time>
      </trkpt>
      <trkpt lat="43.450936" lon="1.643933">
        <ele>221.6</ele>
        <time>2014-02-04T09:47:24Z</time>
      </trkpt>
      <trkpt lat="43.450978" lon="1.644034">
        <ele>221.6</ele>
        <time>2014-02-04T09:47:32Z</time>
      </trkpt>
      <trkpt lat="43.451021" lon="1.644148">
        <ele>221.8</ele>
        <time>2014-02-04T09:47:40Z</time>
      </trkpt>
      <trkpt lat="43.451067" lon="1.644256">
        <ele>222.1</ele>
        <time>2014-02-04T09:47:48Z</time>
      </trkpt>
      <trkpt lat="43.451087" lon="1.644382">
        <ele>222.0</ele>
        <time>2014-02-04T09:47:56Z</time>
      </trkpt>
      <trkpt lat="43.451125" lon="1.644500">
        <ele>222.4</ele>
        <time>2014-02-04T09:48:04Z</time>
      </trkpt>
      <trkpt lat="43.451171" lon="1.644625">
        <ele>222.4</ele>
        <time>2014-02-04T09:48:12Z</time>
      </trkpt>
      <trkpt lat="43.451222" lon="1.644737">
        <ele>222.8</ele>
        <time>2014-02-04T09:48:20Z</time>
      </trkpt>
      <trkpt lat="43.451261" lon="1.644849">
        <ele>222.1</ele>
        <time>2014-02-04T09:48:29Z</time>
      </trkpt>
      <trkpt lat="43.451317" lon="1.644984">
        <ele>221.5</ele>
        <time>2014-02-04T09:48:38Z</time>
      </trkpt>
      <trkpt lat="43.451378" lon="1.645101">
        <ele>221.1</ele>
        <time>2014-02-04T09:48:48Z</time>
      </trkpt>
      <trkpt lat="43.451447" lon="1.645200">
        <ele>220.2</ele>
        <time>2014-02-04T09:48:57Z</time>
      </trkpt>
      <trkpt lat="43.451512" lon="1.645305">
        <ele>220.1</ele>
        <time>2014-02-04T09:49:05Z</time>
      </trkpt>
      <trkpt lat="43.451588" lon="1.645419">
        <ele>219.6</ele>
        <time>2014-02-04T09:49:14Z</time>
      </trkpt>
      <trkpt lat="43.451655" lon="1.645515">
        <ele>219.0</ele>
        <time>2014-02-04T09:49:23Z</time>
      </trkpt>
      <trkpt lat="43.451731" lon="1.645599">
        <ele>218.6</ele>
        <time>2014-02-04T09:49:33Z</time>
      </trkpt>
      <trkpt lat="43.451822" lon="1.645675">
        <ele>217.6</ele>
        <time>2014-02-04T09:49:43Z</time>
      </trkpt>
      <trkpt lat="43.451904" lon="1.645756">
        <ele>217.0</ele>
        <time>2014-02-04T09:49:53Z</time>
      </trkpt>
      <trkpt lat="43.451993" lon="1.645842">
        <ele>216.6</ele>
        <time>2014-02-04T09:50:03Z</time>
      </trkpt>
      <trkpt lat="43.452087" lon="1.645911">
        <ele>216.1</ele>
        <time>2014-02-04T09:50:12Z</time>
      </trkpt>
      <trkpt lat="43.452179" lon="1.645990">
        <ele>215.6</ele>
        <time>2014-02-04T09:50:21Z</time>
      </trkpt>
      <trkpt lat="43.452264" lon="1.646064">
        <ele>215.1</ele>
        <time>2014-02-04T09:50:30Z</time>
      </trkpt>
      <trkpt lat="43.452341" lon="1.646145">
        <ele>214.4</ele>
        <time>2014-02-04T09:50:38Z</time>
      </trkpt>
      <trkpt lat="43.452429" lon="1.646217">
        <ele>214.1</ele>
        <time>2014-02-04T09:50:45Z</time>
      </trkpt>
      <trkpt lat="43.452505" lon="1.646291">
        <ele>213.8</ele>
        <time>2014-02-04T09:50:52Z</time>
      </trkpt>
      <trkpt lat="43.452593" lon="1.646370">
        <ele>213.3</ele>
        <time>2014-02-04T09:51:00Z</time>
      </trkpt>
      <trkpt lat="43.452668" lon="1.646435">
        <ele>213.1</ele>
        <time>2014-02-04T09:51:07Z</time>
      </trkpt>
      <trkpt lat="43.452750" lon="1.646515">
        <ele>213.1</ele>
        <time>2014-02-04T09:51:15Z</time>
      </trkpt>
      <trkpt lat="43.452836" lon="1.646602">
        <ele>213.4</ele>
        <time>2014-02-04T09:51:23Z</time>
      </trkpt>
      <trkpt lat="43.452912" lon="1.646678">
        <ele>213.9</ele>
        <time>2014-02-04T09:51:30Z</time>
      </trkpt>
      <trkpt lat="43.452983" lon="1.646766">
        <ele>214.3</ele>
        <time>2014-02-04T09:51:38Z</time>
      </trkpt>
      <trkpt lat="43.453048" lon="1.646859">
        <ele>214.7</ele>
        <time>2014-02-04T09:51:46Z</time>
      </trkpt>
      <trkpt lat="43.453114" lon="1.646961">
        <ele>215.7</ele>
        <time>2014-02-04T09:51:55Z</time>
      </trkpt>
      <trkpt lat="43.453175" lon="1.647072">
        <ele>216.6</ele>
        <time>2014-02-04T09:52:05Z</time>
      </trkpt>
      <trkpt lat="43.453245" lon="1.647197">
        <ele>217.2</ele>
        <time>2014-02-04T09:52:23Z</time>
      </trkpt>
      <trkpt lat="43.453311" lon="1.647302">
        <ele>217.7</ele>
        <time>2014-02-04T09:52:33Z</time>
      </trkpt>
      <trkpt lat="43.453383" lon="1.647414">
        <ele>218.0</ele>
        <time>2014-02-04T09:52:41Z</time>
      </trkpt>
      <trkpt lat="43.453468" lon="1.647522">
        <ele>218.3</ele>
        <time>2014-02-04T09:52:50Z</time>
      </trkpt>
      <trkpt lat="43.453558" lon="1.647596">
        <ele>218.9</ele>
        <time>2014-02-04T09:53:00Z</time>
      </trkpt>
      <trkpt lat="43.453594" lon="1.647604">
        <ele>220.1</ele>
        <time>2014-02-04T09:55:22Z</time>
        <name>La Peyrelle</name>
      </trkpt>
      <trkpt lat="43.453676" lon="1.647624">
        <ele>220.2</ele>
        <time>2014-02-04T09:55:52Z</time>
      </trkpt>
      <trkpt lat="43.453768" lon="1.647663">
        <ele>220.3</ele>
        <time>2014-02-04T09:56:00Z</time>
      </trkpt>
      <trkpt lat="43.453857" lon="1.647676">
        <ele>220.4</ele>
        <time>2014-02-04T09:56:07Z</time>
      </trkpt>
      <trkpt lat="43.453947" lon="1.647719">
        <ele>220.1</ele>
        <time>2014-02-04T09:56:14Z</time>
      </trkpt>
      <trkpt lat="43.454043" lon="1.647758">
        <ele>219.6</ele>
        <time>2014-02-04T09:56:22Z</time>
      </trkpt>
      <trkpt lat="43.454140" lon="1.647812">
        <ele>219.0</ele>
        <time>2014-02-04T09:56:30Z</time>
      </trkpt>
      <trkpt lat="43.454242" lon="1.647865">
        <ele>218.4</ele>
        <time>2014-02-04T09:56:40Z</time>
      </trkpt>
      <trkpt lat="43.454362" lon="1.647954">
        <ele>217.7</ele>
        <time>2014-02-04T09:56:52Z</time>
      </trkpt>
      <trkpt lat="43.454492" lon="1.648031">
        <ele>216.0</ele>
        <time>2014-02-04T09:57:08Z</time>
      </trkpt>
      <trkpt lat="43.454594" lon="1.648102">
        <ele>214.1</ele>
        <time>2014-02-04T09:57:19Z</time>
      </trkpt>
      <trkpt lat="43.454695" lon="1.648185">
        <ele>212.9</ele>
        <time>2014-02-04T09:57:31Z</time>
      </trkpt>
      <trkpt lat="43.454800" lon="1.648267">
        <ele>211.4</ele>
        <time>2014-02-04T09:57:42Z</time>
      </trkpt>
      <trkpt lat="43.454913" lon="1.648396">
        <ele>209.9</ele>
        <time>2014-02-04T09:57:53Z</time>
      </trkpt>
      <trkpt lat="43.455027" lon="1.648507">
        <ele>208.0</ele>
        <time>2014-02-04T09:58:05Z</time>
      </trkpt>
      <trkpt lat="43.455146" lon="1.648574">
        <ele>206.8</ele>
        <time>2014-02-04T09:58:15Z</time>
      </trkpt>
      <trkpt lat="43.455267" lon="1.648607">
        <ele>206.1</ele>
        <time>2014-02-04T09:58:25Z</time>
      </trkpt>
      <trkpt lat="43.455397" lon="1.648564">
        <ele>205.3</ele>
        <time>2014-02-04T09:58:36Z</time>
      </trkpt>
      <trkpt lat="43.455502" lon="1.648500">
        <ele>204.4</ele>
        <time>2014-02-04T09:58:46Z</time>
      </trkpt>
      <trkpt lat="43.455623" lon="1.648466">
        <ele>202.6</ele>
        <time>2014-02-04T09:58:58Z</time>
      </trkpt>
      <trkpt lat="43.455725" lon="1.648467">
        <ele>201.6</ele>
        <time>2014-02-04T09:59:07Z</time>
      </trkpt>
      <trkpt lat="43.455830" lon="1.648486">
        <ele>200.2</ele>
        <time>2014-02-04T09:59:16Z</time>
      </trkpt>
      <trkpt lat="43.455937" lon="1.648508">
        <ele>198.8</ele>
        <time>2014-02-04T09:59:25Z</time>
      </trkpt>
      <trkpt lat="43.456067" lon="1.648530">
        <ele>197.5</ele>
        <time>2014-02-04T09:59:34Z</time>
      </trkpt>
      <trkpt lat="43.456167" lon="1.648563">
        <ele>196.4</ele>
        <time>2014-02-04T09:59:42Z</time>
      </trkpt>
      <trkpt lat="43.456257" lon="1.648586">
        <ele>195.5</ele>
        <time>2014-02-04T09:59:50Z</time>
      </trkpt>
      <trkpt lat="43.456354" lon="1.648616">
        <ele>194.5</ele>
        <time>2014-02-04T09:59:58Z</time>
      </trkpt>
      <trkpt lat="43.456452" lon="1.648646">
        <ele>193.7</ele>
        <time>2014-02-04T10:00:07Z</time>
      </trkpt>
      <trkpt lat="43.456552" lon="1.648680">
        <ele>192.8</ele>
        <time>2014-02-04T10:00:16Z</time>
      </trkpt>
      <trkpt lat="43.456647" lon="1.648727">
        <ele>192.1</ele>
        <time>2014-02-04T10:00:25Z</time>
      </trkpt>
      <trkpt lat="43.456763" lon="1.648742">
        <ele>191.5</ele>
        <time>2014-02-04T10:00:35Z</time>
      </trkpt>
      <trkpt lat="43.456857" lon="1.648771">
        <ele>191.1</ele>
        <time>2014-02-04T10:00:46Z</time>
      </trkpt>
      <trkpt lat="43.456969" lon="1.648802">
        <ele>190.6</ele>
        <time>2014-02-04T10:01:00Z</time>
      </trkpt>
      <trkpt lat="43.456945" lon="1.648778">
        <ele>190.1</ele>
        <time>2014-02-04T10:01:50Z</time>
      </trkpt>
      <trkpt lat="43.457016" lon="1.648842">
        <ele>190.8</ele>
        <time>2014-02-04T10:03:05Z</time>
      </trkpt>
      <trkpt lat="43.457056" lon="1.648852">
        <ele>191.8</ele>
        <time>2014-02-04T10:04:21Z</time>
        <name>L Abreuvoir</name>
      </trkpt>
      <trkpt lat="43.457145" lon="1.648849">
        <ele>191.8</ele>
        <time>2014-02-04T10:04:52Z</time>
      </trkpt>
      <trkpt lat="43.457215" lon="1.648748">
        <ele>192.1</ele>
        <time>2014-02-04T10:05:07Z</time>
      </trkpt>
      <trkpt lat="43.457299" lon="1.648664">
        <ele>192.4</ele>
        <time>2014-02-04T10:05:18Z</time>
      </trkpt>
      <trkpt lat="43.457371" lon="1.648571">
        <ele>192.4</ele>
        <time>2014-02-04T10:05:27Z</time>
      </trkpt>
      <trkpt lat="43.457441" lon="1.648494">
        <ele>192.4</ele>
        <time>2014-02-04T10:05:36Z</time>
      </trkpt>
      <trkpt lat="43.457504" lon="1.648410">
        <ele>192.6</ele>
        <time>2014-02-04T10:05:45Z</time>
      </trkpt>
      <trkpt lat="43.457579" lon="1.648319">
        <ele>192.6</ele>
        <time>2014-02-04T10:05:55Z</time>
      </trkpt>
      <trkpt lat="43.457660" lon="1.648232">
        <ele>192.9</ele>
        <time>2014-02-04T10:06:04Z</time>
      </trkpt>
      <trkpt lat="43.457738" lon="1.648140">
        <ele>193.2</ele>
        <time>2014-02-04T10:06:13Z</time>
      </trkpt>
      <trkpt lat="43.457807" lon="1.648043">
        <ele>193.5</ele>
        <time>2014-02-04T10:06:22Z</time>
      </trkpt>
      <trkpt lat="43.457879" lon="1.647925">
        <ele>193.9</ele>
        <time>2014-02-04T10:06:31Z</time>
      </trkpt>
      <trkpt lat="43.457927" lon="1.647826">
        <ele>194.1</ele>
        <time>2014-02-04T10:06:40Z</time>
      </trkpt>
      <trkpt lat="43.457982" lon="1.647729">
        <ele>194.7</ele>
        <time>2014-02-04T10:06:50Z</time>
      </trkpt>
      <trkpt lat="43.458048" lon="1.647629">
        <ele>195.0</ele>
        <time>2014-02-04T10:07:00Z</time>
      </trkpt>
      <trkpt lat="43.458152" lon="1.647548">
        <ele>195.5</ele>
        <time>2014-02-04T10:07:10Z</time>
      </trkpt>
      <trkpt lat="43.458250" lon="1.647532">
        <ele>195.9</ele>
        <time>2014-02-04T10:07:20Z</time>
      </trkpt>
      <trkpt lat="43.458339" lon="1.647572">
        <ele>196.8</ele>
        <time>2014-02-04T10:07:30Z</time>
      </trkpt>
      <trkpt lat="43.458416" lon="1.647620">
        <ele>197.6</ele>
        <time>2014-02-04T10:07:40Z</time>
      </trkpt>
      <trkpt lat="43.458513" lon="1.647668">
        <ele>198.6</ele>
        <time>2014-02-04T10:07:51Z</time>
      </trkpt>
      <trkpt lat="43.458605" lon="1.647725">
        <ele>199.4</ele>
        <time>2014-02-04T10:08:02Z</time>
      </trkpt>
      <trkpt lat="43.458706" lon="1.647782">
        <ele>201.1</ele>
        <time>2014-02-04T10:08:13Z</time>
      </trkpt>
      <trkpt lat="43.458803" lon="1.647834">
        <ele>202.4</ele>
        <time>2014-02-04T10:08:23Z</time>
      </trkpt>
      <trkpt lat="43.458898" lon="1.647886">
        <ele>203.5</ele>
        <time>2014-02-04T10:08:33Z</time>
      </trkpt>
      <trkpt lat="43.458988" lon="1.647942">
        <ele>204.7</ele>
        <time>2014-02-04T10:08:42Z</time>
      </trkpt>
      <trkpt lat="43.459052" lon="1.647977">
        <ele>206.6</ele>
        <time>2014-02-04T10:09:28Z</time>
      </trkpt>
      <trkpt lat="43.459092" lon="1.647845">
        <ele>206.4</ele>
        <time>2014-02-04T10:09:39Z</time>
      </trkpt>
      <trkpt lat="43.459137" lon="1.647719">
        <ele>205.5</ele>
        <time>2014-02-04T10:09:49Z</time>
      </trkpt>
      <trkpt lat="43.459176" lon="1.647609">
        <ele>204.9</ele>
        <time>2014-02-04T10:09:58Z</time>
      </trkpt>
      <trkpt lat="43.459231" lon="1.647495">
        <ele>203.9</ele>
        <time>2014-02-04T10:10:07Z</time>
      </trkpt>
      <trkpt lat="43.459282" lon="1.647385">
        <ele>203.1</ele>
        <time>2014-02-04T10:10:16Z</time>
      </trkpt>
      <trkpt lat="43.459332" lon="1.647270">
        <ele>202.2</ele>
        <time>2014-02-04T10:10:25Z</time>
      </trkpt>
      <trkpt lat="43.459381" lon="1.647154">
        <ele>201.5</ele>
        <time>2014-02-04T10:10:35Z</time>
      </trkpt>
      <trkpt lat="43.459437" lon="1.647057">
        <ele>200.7</ele>
        <time>2014-02-04T10:10:44Z</time>
      </trkpt>
      <trkpt lat="43.459489" lon="1.646943">
        <ele>200.2</ele>
        <time>2014-02-04T10:10:53Z</time>
      </trkpt>
      <trkpt lat="43.459549" lon="1.646838">
        <ele>199.7</ele>
        <time>2014-02-04T10:11:02Z</time>
      </trkpt>
      <trkpt lat="43.459608" lon="1.646723">
        <ele>198.9</ele>
        <time>2014-02-04T10:11:10Z</time>
      </trkpt>
      <trkpt lat="43.459672" lon="1.646622">
        <ele>198.1</ele>
        <time>2014-02-04T10:11:18Z</time>
      </trkpt>
      <trkpt lat="43.459734" lon="1.646523">
        <ele>197.4</ele>
        <time>2014-02-04T10:11:26Z</time>
      </trkpt>
      <trkpt lat="43.459794" lon="1.646428">
        <ele>196.6</ele>
        <time>2014-02-04T10:11:34Z</time>
      </trkpt>
      <trkpt lat="43.459851" lon="1.646328">
        <ele>196.0</ele>
        <time>2014-02-04T10:11:42Z</time>
      </trkpt>
      <trkpt lat="43.459912" lon="1.646226">
        <ele>195.3</ele>
        <time>2014-02-04T10:11:51Z</time>
      </trkpt>
      <trkpt lat="43.459965" lon="1.646120">
        <ele>194.6</ele>
        <time>2014-02-04T10:12:00Z</time>
      </trkpt>
      <trkpt lat="43.460019" lon="1.646014">
        <ele>193.9</ele>
        <time>2014-02-04T10:12:08Z</time>
      </trkpt>
      <trkpt lat="43.460071" lon="1.645910">
        <ele>193.1</ele>
        <time>2014-02-04T10:12:16Z</time>
      </trkpt>
      <trkpt lat="43.460137" lon="1.645808">
        <ele>192.6</ele>
        <time>2014-02-04T10:12:25Z</time>
      </trkpt>
      <trkpt lat="43.460205" lon="1.645706">
        <ele>191.9</ele>
        <time>2014-02-04T10:12:34Z</time>
      </trkpt>
      <trkpt lat="43.460264" lon="1.645597">
        <ele>191.4</ele>
        <time>2014-02-04T10:12:43Z</time>
      </trkpt>
      <trkpt lat="43.460320" lon="1.645489">
        <ele>190.8</ele>
        <time>2014-02-04T10:12:52Z</time>
      </trkpt>
      <trkpt lat="43.460378" lon="1.645391">
        <ele>190.3</ele>
        <time>2014-02-04T10:13:02Z</time>
      </trkpt>
      <trkpt lat="43.460439" lon="1.645299">
        <ele>189.9</ele>
        <time>2014-02-04T10:13:11Z</time>
      </trkpt>
      <trkpt lat="43.460497" lon="1.645193">
        <ele>189.3</ele>
        <time>2014-02-04T10:13:21Z</time>
      </trkpt>
      <trkpt lat="43.460563" lon="1.645102">
        <ele>188.9</ele>
        <time>2014-02-04T10:13:33Z</time>
      </trkpt>
      <trkpt lat="43.460622" lon="1.644992">
        <ele>188.7</ele>
        <time>2014-02-04T10:13:42Z</time>
      </trkpt>
      <trkpt lat="43.460678" lon="1.644890">
        <ele>188.1</ele>
        <time>2014-02-04T10:13:50Z</time>
      </trkpt>
      <trkpt lat="43.460741" lon="1.644783">
        <ele>187.8</ele>
        <time>2014-02-04T10:13:59Z</time>
      </trkpt>
      <trkpt lat="43.460793" lon="1.644677">
        <ele>187.5</ele>
        <time>2014-02-04T10:14:08Z</time>
      </trkpt>
      <trkpt lat="43.460858" lon="1.644568">
        <ele>187.1</ele>
        <time>2014-02-04T10:14:17Z</time>
      </trkpt>
      <trkpt lat="43.460914" lon="1.644457">
        <ele>186.6</ele>
        <time>2014-02-04T10:14:26Z</time>
      </trkpt>
      <trkpt lat="43.460977" lon="1.644363">
        <ele>186.1</ele>
        <time>2014-02-04T10:14:40Z</time>
      </trkpt>
      <trkpt lat="43.461058" lon="1.644205">
        <ele>185.9</ele>
        <time>2014-02-04T10:15:54Z</time>
      </trkpt>
      <trkpt lat="43.461073" lon="1.644103">
        <ele>184.9</ele>
        <time>2014-02-04T10:16:18Z</time>
      </trkpt>
      <trkpt lat="43.461134" lon="1.644005">
        <ele>184.8</ele>
        <time>2014-02-04T10:16:26Z</time>
      </trkpt>
      <trkpt lat="43.461196" lon="1.643908">
        <ele>184.7</ele>
        <time>2014-02-04T10:16:34Z</time>
      </trkpt>
      <trkpt lat="43.461255" lon="1.643798">
        <ele>184.5</ele>
        <time>2014-02-04T10:16:43Z</time>
      </trkpt>
      <trkpt lat="43.461314" lon="1.643688">
        <ele>184.1</ele>
        <time>2014-02-04T10:16:52Z</time>
      </trkpt>
      <trkpt lat="43.461348" lon="1.643576">
        <ele>183.6</ele>
        <time>2014-02-04T10:17:02Z</time>
      </trkpt>
      <trkpt lat="43.461411" lon="1.643528">
        <ele>183.2</ele>
        <time>2014-02-04T10:17:26Z</time>
      </trkpt>
      <trkpt lat="43.461511" lon="1.643486">
        <ele>184.0</ele>
        <time>2014-02-04T10:18:20Z</time>
      </trkpt>
      <trkpt lat="43.461553" lon="1.643460">
        <ele>183.7</ele>
        <time>2014-02-04T10:18:45Z</time>
      </trkpt>
      <trkpt lat="43.461616" lon="1.643407">
        <ele>184.0</ele>
        <time>2014-02-04T10:19:22Z</time>
        <name>Chapelle Ste-Colombe</name>
      </trkpt>
      <trkpt lat="43.461700" lon="1.643434">
        <ele>184.1</ele>
        <time>2014-02-04T10:19:41Z</time>
      </trkpt>
      <trkpt lat="43.461815" lon="1.643428">
        <ele>183.9</ele>
        <time>2014-02-04T10:20:08Z</time>
      </trkpt>
      <trkpt lat="43.461882" lon="1.643388">
        <ele>183.6</ele>
        <time>2014-02-04T10:22:14Z</time>
      </trkpt>
      <trkpt lat="43.461980" lon="1.643374">
        <ele>183.3</ele>
        <time>2014-02-04T10:22:22Z</time>
      </trkpt>
      <trkpt lat="43.462081" lon="1.643338">
        <ele>182.9</ele>
        <time>2014-02-04T10:22:30Z</time>
      </trkpt>
      <trkpt lat="43.462178" lon="1.643299">
        <ele>182.4</ele>
        <time>2014-02-04T10:22:39Z</time>
      </trkpt>
      <trkpt lat="43.462265" lon="1.643279">
        <ele>182.0</ele>
        <time>2014-02-04T10:22:47Z</time>
      </trkpt>
      <trkpt lat="43.462365" lon="1.643250">
        <ele>181.6</ele>
        <time>2014-02-04T10:22:56Z</time>
      </trkpt>
      <trkpt lat="43.462459" lon="1.643215">
        <ele>180.8</ele>
        <time>2014-02-04T10:23:04Z</time>
      </trkpt>
      <trkpt lat="43.462555" lon="1.643179">
        <ele>180.5</ele>
        <time>2014-02-04T10:23:12Z</time>
      </trkpt>
      <trkpt lat="43.462657" lon="1.643171">
        <ele>180.0</ele>
        <time>2014-02-04T10:23:20Z</time>
      </trkpt>
      <trkpt lat="43.462746" lon="1.643147">
        <ele>179.5</ele>
        <time>2014-02-04T10:23:29Z</time>
      </trkpt>
      <trkpt lat="43.462839" lon="1.643134">
        <ele>179.1</ele>
        <time>2014-02-04T10:23:37Z</time>
      </trkpt>
      <trkpt lat="43.462934" lon="1.643110">
        <ele>178.8</ele>
        <time>2014-02-04T10:23:46Z</time>
      </trkpt>
      <trkpt lat="43.463038" lon="1.643088">
        <ele>178.2</ele>
        <time>2014-02-04T10:23:55Z</time>
      </trkpt>
      <trkpt lat="43.463141" lon="1.643069">
        <ele>177.9</ele>
        <time>2014-02-04T10:24:04Z</time>
      </trkpt>
      <trkpt lat="43.463234" lon="1.643039">
        <ele>177.5</ele>
        <time>2014-02-04T10:24:13Z</time>
      </trkpt>
      <trkpt lat="43.463327" lon="1.643010">
        <ele>177.0</ele>
        <time>2014-02-04T10:24:22Z</time>
      </trkpt>
      <trkpt lat="43.463418" lon="1.642994">
        <ele>176.9</ele>
        <time>2014-02-04T10:24:31Z</time>
      </trkpt>
      <trkpt lat="43.463512" lon="1.642961">
        <ele>176.9</ele>
        <time>2014-02-04T10:24:40Z</time>
      </trkpt>
      <trkpt lat="43.463612" lon="1.642935">
        <ele>176.8</ele>
        <time>2014-02-04T10:24:49Z</time>
      </trkpt>
      <trkpt lat="43.463708" lon="1.642909">
        <ele>176.5</ele>
        <time>2014-02-04T10:24:58Z</time>
      </trkpt>
      <trkpt lat="43.463816" lon="1.642882">
        <ele>176.1</ele>
        <time>2014-02-04T10:25:07Z</time>
      </trkpt>
      <trkpt lat="43.463923" lon="1.642863">
        <ele>175.8</ele>
        <time>2014-02-04T10:25:16Z</time>
      </trkpt>
      <trkpt lat="43.464022" lon="1.642830">
        <ele>175.5</ele>
        <time>2014-02-04T10:25:24Z</time>
      </trkpt>
      <trkpt lat="43.464115" lon="1.642802">
        <ele>175.3</ele>
        <time>2014-02-04T10:25:32Z</time>
      </trkpt>
      <trkpt lat="43.464200" lon="1.642778">
        <ele>175.2</ele>
        <time>2014-02-04T10:25:40Z</time>
      </trkpt>
      <trkpt lat="43.464291" lon="1.642755">
        <ele>175.2</ele>
        <time>2014-02-04T10:25:48Z</time>
      </trkpt>
      <trkpt lat="43.464394" lon="1.642738">
        <ele>175.4</ele>
        <time>2014-02-04T10:25:56Z</time>
      </trkpt>
      <trkpt lat="43.464495" lon="1.642720">
        <ele>175.9</ele>
        <time>2014-02-04T10:26:05Z</time>
      </trkpt>
      <trkpt lat="43.464575" lon="1.642726">
        <ele>176.2</ele>
        <time>2014-02-04T10:26:15Z</time>
      </trkpt>
      <trkpt lat="43.464668" lon="1.642705">
        <ele>176.4</ele>
        <time>2014-02-04T10:26:23Z</time>
      </trkpt>
      <trkpt lat="43.464753" lon="1.642668">
        <ele>176.7</ele>
        <time>2014-02-04T10:26:31Z</time>
        <name>Pont Ste-Eulalie</name>
      </trkpt>
      <trkpt lat="43.464788" lon="1.642571">
        <ele>176.9</ele>
        <time>2014-02-04T10:26:53Z</time>
      </trkpt>
      <trkpt lat="43.464780" lon="1.642413">
        <ele>176.5</ele>
        <time>2014-02-04T10:27:03Z</time>
      </trkpt>
      <trkpt lat="43.464767" lon="1.642274">
        <ele>176.0</ele>
        <time>2014-02-04T10:27:12Z</time>
      </trkpt>
      <trkpt lat="43.464763" lon="1.642132">
        <ele>175.9</ele>
        <time>2014-02-04T10:27:20Z</time>
      </trkpt>
      <trkpt lat="43.464754" lon="1.642004">
        <ele>175.8</ele>
        <time>2014-02-04T10:27:27Z</time>
      </trkpt>
      <trkpt lat="43.464734" lon="1.641865">
        <ele>175.8</ele>
        <time>2014-02-04T10:27:35Z</time>
      </trkpt>
      <trkpt lat="43.464729" lon="1.641727">
        <ele>175.8</ele>
        <time>2014-02-04T10:27:43Z</time>
      </trkpt>
      <trkpt lat="43.464728" lon="1.641588">
        <ele>175.9</ele>
        <time>2014-02-04T10:27:51Z</time>
      </trkpt>
      <trkpt lat="43.464726" lon="1.641454">
        <ele>176.0</ele>
        <time>2014-02-04T10:27:59Z</time>
      </trkpt>
      <trkpt lat="43.464719" lon="1.641317">
        <ele>176.1</ele>
        <time>2014-02-04T10:28:07Z</time>
      </trkpt>
      <trkpt lat="43.464708" lon="1.641193">
        <ele>176.5</ele>
        <time>2014-02-04T10:28:15Z</time>
      </trkpt>
      <trkpt lat="43.464702" lon="1.641067">
        <ele>176.5</ele>
        <time>2014-02-04T10:28:23Z</time>
      </trkpt>
      <trkpt lat="43.464688" lon="1.640945">
        <ele>176.2</ele>
        <time>2014-02-04T10:28:31Z</time>
      </trkpt>
      <trkpt lat="43.464680" lon="1.640838">
        <ele>175.9</ele>
        <time>2014-02-04T10:28:39Z</time>
      </trkpt>
      <trkpt lat="43.464661" lon="1.640699">
        <ele>175.8</ele>
        <time>2014-02-04T10:28:48Z</time>
      </trkpt>
      <trkpt lat="43.464640" lon="1.640570">
        <ele>175.9</ele>
        <time>2014-02-04T10:28:56Z</time>
      </trkpt>
      <trkpt lat="43.464623" lon="1.640432">
        <ele>175.8</ele>
        <time>2014-02-04T10:29:04Z</time>
      </trkpt>
      <trkpt lat="43.464606" lon="1.640302">
        <ele>175.6</ele>
        <time>2014-02-04T10:29:12Z</time>
      </trkpt>
      <trkpt lat="43.464581" lon="1.640178">
        <ele>175.6</ele>
        <time>2014-02-04T10:29:20Z</time>
      </trkpt>
      <trkpt lat="43.464546" lon="1.640042">
        <ele>175.6</ele>
        <time>2014-02-04T10:29:29Z</time>
      </trkpt>
      <trkpt lat="43.464516" lon="1.639923">
        <ele>175.7</ele>
        <time>2014-02-04T10:29:37Z</time>
      </trkpt>
      <trkpt lat="43.464470" lon="1.639811">
        <ele>175.4</ele>
        <time>2014-02-04T10:29:45Z</time>
      </trkpt>
      <trkpt lat="43.464420" lon="1.639697">
        <ele>175.4</ele>
        <time>2014-02-04T10:29:53Z</time>
      </trkpt>
      <trkpt lat="43.464368" lon="1.639579">
        <ele>175.6</ele>
        <time>2014-02-04T10:30:01Z</time>
      </trkpt>
      <trkpt lat="43.464320" lon="1.639464">
        <ele>175.4</ele>
        <time>2014-02-04T10:30:09Z</time>
      </trkpt>
      <trkpt lat="43.464266" lon="1.639354">
        <ele>175.4</ele>
        <time>2014-02-04T10:30:17Z</time>
      </trkpt>
      <trkpt lat="43.464206" lon="1.639227">
        <ele>175.6</ele>
        <time>2014-02-04T10:30:26Z</time>
      </trkpt>
      <trkpt lat="43.464162" lon="1.639119">
        <ele>175.7</ele>
        <time>2014-02-04T10:30:34Z</time>
      </trkpt>
      <trkpt lat="43.464119" lon="1.639014">
        <ele>175.8</ele>
        <time>2014-02-04T10:30:42Z</time>
      </trkpt>
      <trkpt lat="43.464056" lon="1.638923">
        <ele>176.2</ele>
        <time>2014-02-04T10:30:50Z</time>
      </trkpt>
      <trkpt lat="43.463996" lon="1.638835">
        <ele>176.2</ele>
        <time>2014-02-04T10:30:58Z</time>
      </trkpt>
      <trkpt lat="43.463938" lon="1.638725">
        <ele>176.2</ele>
        <time>2014-02-04T10:31:07Z</time>
      </trkpt>
      <trkpt lat="43.463890" lon="1.638627">
        <ele>176.2</ele>
        <time>2014-02-04T10:31:15Z</time>
      </trkpt>
      <trkpt lat="43.463838" lon="1.638526">
        <ele>176.1</ele>
        <time>2014-02-04T10:31:23Z</time>
      </trkpt>
      <trkpt lat="43.463781" lon="1.638417">
        <ele>176.4</ele>
        <time>2014-02-04T10:31:31Z</time>
      </trkpt>
      <trkpt lat="43.463732" lon="1.638307">
        <ele>176.4</ele>
        <time>2014-02-04T10:31:40Z</time>
      </trkpt>
      <trkpt lat="43.463688" lon="1.638187">
        <ele>176.6</ele>
        <time>2014-02-04T10:31:49Z</time>
      </trkpt>
      <trkpt lat="43.463635" lon="1.638068">
        <ele>176.6</ele>
        <time>2014-02-04T10:31:58Z</time>
      </trkpt>
      <trkpt lat="43.463582" lon="1.637944">
        <ele>176.4</ele>
        <time>2014-02-04T10:32:07Z</time>
      </trkpt>
      <trkpt lat="43.463527" lon="1.637824">
        <ele>176.4</ele>
        <time>2014-02-04T10:32:17Z</time>
      </trkpt>
      <trkpt lat="43.463478" lon="1.637701">
        <ele>176.2</ele>
        <time>2014-02-04T10:32:26Z</time>
      </trkpt>
      <trkpt lat="43.463421" lon="1.637558">
        <ele>176.1</ele>
        <time>2014-02-04T10:32:35Z</time>
      </trkpt>
      <trkpt lat="43.463382" lon="1.637423">
        <ele>176.0</ele>
        <time>2014-02-04T10:32:44Z</time>
      </trkpt>
      <trkpt lat="43.463356" lon="1.637291">
        <ele>176.1</ele>
        <time>2014-02-04T10:32:53Z</time>
      </trkpt>
      <trkpt lat="43.463357" lon="1.637161">
        <ele>176.3</ele>
        <time>2014-02-04T10:33:02Z</time>
      </trkpt>
      <trkpt lat="43.463346" lon="1.637008">
        <ele>176.6</ele>
        <time>2014-02-04T10:33:13Z</time>
      </trkpt>
      <trkpt lat="43.463315" lon="1.636853">
        <ele>176.9</ele>
        <time>2014-02-04T10:33:22Z</time>
      </trkpt>
      <trkpt lat="43.463282" lon="1.636701">
        <ele>177.0</ele>
        <time>2014-02-04T10:33:31Z</time>
      </trkpt>
      <trkpt lat="43.463239" lon="1.636577">
        <ele>177.0</ele>
        <time>2014-02-04T10:33:40Z</time>
      </trkpt>
      <trkpt lat="43.463184" lon="1.636457">
        <ele>176.4</ele>
        <time>2014-02-04T10:33:49Z</time>
      </trkpt>
      <trkpt lat="43.463137" lon="1.636334">
        <ele>175.6</ele>
        <time>2014-02-04T10:33:59Z</time>
      </trkpt>
      <trkpt lat="43.463074" lon="1.636238">
        <ele>175.2</ele>
        <time>2014-02-04T10:35:16Z</time>
      </trkpt>
      <trkpt lat="43.463018" lon="1.636123">
        <ele>174.5</ele>
        <time>2014-02-04T10:35:27Z</time>
      </trkpt>
      <trkpt lat="43.462964" lon="1.636012">
        <ele>174.2</ele>
        <time>2014-02-04T10:35:37Z</time>
      </trkpt>
      <trkpt lat="43.462912" lon="1.635910">
        <ele>174.0</ele>
        <time>2014-02-04T10:35:46Z</time>
      </trkpt>
      <trkpt lat="43.462863" lon="1.635798">
        <ele>173.7</ele>
        <time>2014-02-04T10:35:55Z</time>
      </trkpt>
      <trkpt lat="43.462814" lon="1.635696">
        <ele>173.2</ele>
        <time>2014-02-04T10:36:04Z</time>
      </trkpt>
      <trkpt lat="43.462745" lon="1.635580">
        <ele>172.9</ele>
        <time>2014-02-04T10:36:13Z</time>
      </trkpt>
      <trkpt lat="43.462695" lon="1.635474">
        <ele>172.8</ele>
        <time>2014-02-04T10:36:21Z</time>
      </trkpt>
      <trkpt lat="43.462638" lon="1.635360">
        <ele>172.8</ele>
        <time>2014-02-04T10:36:29Z</time>
      </trkpt>
      <trkpt lat="43.462589" lon="1.635254">
        <ele>172.4</ele>
        <time>2014-02-04T10:36:37Z</time>
      </trkpt>
      <trkpt lat="43.462534" lon="1.635135">
        <ele>172.5</ele>
        <time>2014-02-04T10:36:45Z</time>
      </trkpt>
      <trkpt lat="43.462484" lon="1.635025">
        <ele>172.8</ele>
        <time>2014-02-04T10:36:53Z</time>
      </trkpt>
      <trkpt lat="43.462440" lon="1.634927">
        <ele>172.9</ele>
        <time>2014-02-04T10:37:02Z</time>
      </trkpt>
      <trkpt lat="43.462416" lon="1.634811">
        <ele>173.1</ele>
        <time>2014-02-04T10:37:10Z</time>
      </trkpt>
      <trkpt lat="43.462387" lon="1.634682">
        <ele>172.8</ele>
        <time>2014-02-04T10:37:19Z</time>
      </trkpt>
      <trkpt lat="43.462347" lon="1.634553">
        <ele>172.2</ele>
        <time>2014-02-04T10:37:28Z</time>
      </trkpt>
      <trkpt lat="43.462322" lon="1.634420">
        <ele>172.1</ele>
        <time>2014-02-04T10:37:37Z</time>
      </trkpt>
      <trkpt lat="43.462307" lon="1.634287">
        <ele>172.0</ele>
        <time>2014-02-04T10:37:48Z</time>
      </trkpt>
      <trkpt lat="43.462279" lon="1.634157">
        <ele>171.9</ele>
        <time>2014-02-04T10:37:57Z</time>
      </trkpt>
      <trkpt lat="43.462254" lon="1.634030">
        <ele>171.7</ele>
        <time>2014-02-04T10:38:06Z</time>
      </trkpt>
      <trkpt lat="43.462233" lon="1.633894">
        <ele>171.7</ele>
        <time>2014-02-04T10:38:15Z</time>
      </trkpt>
      <trkpt lat="43.462218" lon="1.633761">
        <ele>171.6</ele>
        <time>2014-02-04T10:38:25Z</time>
      </trkpt>
      <trkpt lat="43.462190" lon="1.633626">
        <ele>171.4</ele>
        <time>2014-02-04T10:38:35Z</time>
      </trkpt>
      <trkpt lat="43.462162" lon="1.633498">
        <ele>171.6</ele>
        <time>2014-02-04T10:38:45Z</time>
      </trkpt>
      <trkpt lat="43.462121" lon="1.633365">
        <ele>171.6</ele>
        <time>2014-02-04T10:38:55Z</time>
      </trkpt>
      <trkpt lat="43.462094" lon="1.633236">
        <ele>171.6</ele>
        <time>2014-02-04T10:39:03Z</time>
      </trkpt>
      <trkpt lat="43.462074" lon="1.633106">
        <ele>171.7</ele>
        <time>2014-02-04T10:39:11Z</time>
      </trkpt>
      <trkpt lat="43.462065" lon="1.632959">
        <ele>171.5</ele>
        <time>2014-02-04T10:39:20Z</time>
      </trkpt>
      <trkpt lat="43.462049" lon="1.632837">
        <ele>171.4</ele>
        <time>2014-02-04T10:39:28Z</time>
      </trkpt>
      <trkpt lat="43.462022" lon="1.632713">
        <ele>171.5</ele>
        <time>2014-02-04T10:39:36Z</time>
      </trkpt>
      <trkpt lat="43.462010" lon="1.632581">
        <ele>171.6</ele>
        <time>2014-02-04T10:39:44Z</time>
      </trkpt>
      <trkpt lat="43.461999" lon="1.632458">
        <ele>171.7</ele>
        <time>2014-02-04T10:39:52Z</time>
      </trkpt>
      <trkpt lat="43.461985" lon="1.632335">
        <ele>171.4</ele>
        <time>2014-02-04T10:40:00Z</time>
      </trkpt>
      <trkpt lat="43.461962" lon="1.632206">
        <ele>171.4</ele>
        <time>2014-02-04T10:40:08Z</time>
      </trkpt>
      <trkpt lat="43.461950" lon="1.632080">
        <ele>171.2</ele>
        <time>2014-02-04T10:40:16Z</time>
      </trkpt>
      <trkpt lat="43.461938" lon="1.631966">
        <ele>171.4</ele>
        <time>2014-02-04T10:40:24Z</time>
      </trkpt>
      <trkpt lat="43.461916" lon="1.631841">
        <ele>171.3</ele>
        <time>2014-02-04T10:40:32Z</time>
      </trkpt>
      <trkpt lat="43.461895" lon="1.631709">
        <ele>171.2</ele>
        <time>2014-02-04T10:40:41Z</time>
      </trkpt>
      <trkpt lat="43.461868" lon="1.631567">
        <ele>171.3</ele>
        <time>2014-02-04T10:40:50Z</time>
      </trkpt>
      <trkpt lat="43.461853" lon="1.631428">
        <ele>171.5</ele>
        <time>2014-02-04T10:40:59Z</time>
      </trkpt>
      <trkpt lat="43.461832" lon="1.631287">
        <ele>171.6</ele>
        <time>2014-02-04T10:41:08Z</time>
      </trkpt>
      <trkpt lat="43.461822" lon="1.631152">
        <ele>171.5</ele>
        <time>2014-02-04T10:41:17Z</time>
      </trkpt>
      <trkpt lat="43.461795" lon="1.631020">
        <ele>171.5</ele>
        <time>2014-02-04T10:41:26Z</time>
      </trkpt>
      <trkpt lat="43.461777" lon="1.630899">
        <ele>171.7</ele>
        <time>2014-02-04T10:41:34Z</time>
      </trkpt>
      <trkpt lat="43.461771" lon="1.630775">
        <ele>171.6</ele>
        <time>2014-02-04T10:41:42Z</time>
      </trkpt>
      <trkpt lat="43.461754" lon="1.630647">
        <ele>171.6</ele>
        <time>2014-02-04T10:41:51Z</time>
      </trkpt>
      <trkpt lat="43.461746" lon="1.630524">
        <ele>171.5</ele>
        <time>2014-02-04T10:41:58Z</time>
      </trkpt>
      <trkpt lat="43.461742" lon="1.630394">
        <ele>171.5</ele>
        <time>2014-02-04T10:42:06Z</time>
      </trkpt>
      <trkpt lat="43.461735" lon="1.630276">
        <ele>171.7</ele>
        <time>2014-02-04T10:42:14Z</time>
      </trkpt>
      <trkpt lat="43.461735" lon="1.630153">
        <ele>172.0</ele>
        <time>2014-02-04T10:42:23Z</time>
      </trkpt>
      <trkpt lat="43.461724" lon="1.630001">
        <ele>172.3</ele>
        <time>2014-02-04T10:42:33Z</time>
      </trkpt>
      <trkpt lat="43.461713" lon="1.629858">
        <ele>172.4</ele>
        <time>2014-02-04T10:42:42Z</time>
      </trkpt>
      <trkpt lat="43.461706" lon="1.629725">
        <ele>172.6</ele>
        <time>2014-02-04T10:42:51Z</time>
      </trkpt>
      <trkpt lat="43.461701" lon="1.629600">
        <ele>172.8</ele>
        <time>2014-02-04T10:43:00Z</time>
      </trkpt>
      <trkpt lat="43.461689" lon="1.629463">
        <ele>172.8</ele>
        <time>2014-02-04T10:43:09Z</time>
      </trkpt>
      <trkpt lat="43.461682" lon="1.629336">
        <ele>173.0</ele>
        <time>2014-02-04T10:43:20Z</time>
      </trkpt>
      <trkpt lat="43.461663" lon="1.629205">
        <ele>173.2</ele>
        <time>2014-02-04T10:43:30Z</time>
      </trkpt>
      <trkpt lat="43.461649" lon="1.629071">
        <ele>173.3</ele>
        <time>2014-02-04T10:43:39Z</time>
      </trkpt>
      <trkpt lat="43.461629" lon="1.628930">
        <ele>173.2</ele>
        <time>2014-02-04T10:43:48Z</time>
      </trkpt>
      <trkpt lat="43.461617" lon="1.628792">
        <ele>173.0</ele>
        <time>2014-02-04T10:43:56Z</time>
      </trkpt>
      <trkpt lat="43.461615" lon="1.628664">
        <ele>172.8</ele>
        <time>2014-02-04T10:44:05Z</time>
      </trkpt>
      <trkpt lat="43.461600" lon="1.628508">
        <ele>172.8</ele>
        <time>2014-02-04T10:44:14Z</time>
      </trkpt>
      <trkpt lat="43.461594" lon="1.628376">
        <ele>172.7</ele>
        <time>2014-02-04T10:44:23Z</time>
      </trkpt>
      <trkpt lat="43.461590" lon="1.628233">
        <ele>172.7</ele>
        <time>2014-02-04T10:44:32Z</time>
      </trkpt>
      <trkpt lat="43.461559" lon="1.628098">
        <ele>172.7</ele>
        <time>2014-02-04T10:44:41Z</time>
      </trkpt>
      <trkpt lat="43.461517" lon="1.627977">
        <ele>173.2</ele>
        <time>2014-02-04T10:44:51Z</time>
      </trkpt>
      <trkpt lat="43.461490" lon="1.627835">
        <ele>173.4</ele>
        <time>2014-02-04T10:45:01Z</time>
      </trkpt>
      <trkpt lat="43.461458" lon="1.627681">
        <ele>173.8</ele>
        <time>2014-02-04T10:45:11Z</time>
      </trkpt>
      <trkpt lat="43.461404" lon="1.627547">
        <ele>174.3</ele>
        <time>2014-02-04T10:45:22Z</time>
      </trkpt>
      <trkpt lat="43.461360" lon="1.627424">
        <ele>174.9</ele>
        <time>2014-02-04T10:45:31Z</time>
      </trkpt>
      <trkpt lat="43.461315" lon="1.627304">
        <ele>175.1</ele>
        <time>2014-02-04T10:45:40Z</time>
      </trkpt>
      <trkpt lat="43.461247" lon="1.627203">
        <ele>175.1</ele>
        <time>2014-02-04T10:45:50Z</time>
      </trkpt>
      <trkpt lat="43.461165" lon="1.627100">
        <ele>175.1</ele>
        <time>2014-02-04T10:46:00Z</time>
      </trkpt>
      <trkpt lat="43.461079" lon="1.627006">
        <ele>175.8</ele>
        <time>2014-02-04T10:46:11Z</time>
      </trkpt>
      <trkpt lat="43.460985" lon="1.626939">
        <ele>176.8</ele>
        <time>2014-02-04T10:46:23Z</time>
      </trkpt>
      <trkpt lat="43.460913" lon="1.626842">
        <ele>177.8</ele>
        <time>2014-02-04T10:46:34Z</time>
      </trkpt>
      <trkpt lat="43.460857" lon="1.626738">
        <ele>179.2</ele>
        <time>2014-02-04T10:46:44Z</time>
      </trkpt>
      <trkpt lat="43.460835" lon="1.626578">
        <ele>180.4</ele>
        <time>2014-02-04T10:46:55Z</time>
      </trkpt>
      <trkpt lat="43.460844" lon="1.626443">
        <ele>181.0</ele>
        <time>2014-02-04T10:47:05Z</time>
      </trkpt>
      <trkpt lat="43.460827" lon="1.626278">
        <ele>182.1</ele>
        <time>2014-02-04T10:47:18Z</time>
      </trkpt>
      <trkpt lat="43.460841" lon="1.626117">
        <ele>183.6</ele>
        <time>2014-02-04T10:47:35Z</time>
      </trkpt>
      <trkpt lat="43.460836" lon="1.625979">
        <ele>184.6</ele>
        <time>2014-02-04T10:47:55Z</time>
      </trkpt>
      <trkpt lat="43.460805" lon="1.625797">
        <ele>185.4</ele>
        <time>2014-02-04T10:48:15Z</time>
      </trkpt>
      <trkpt lat="43.460760" lon="1.625662">
        <ele>185.6</ele>
        <time>2014-02-04T10:48:33Z</time>
      </trkpt>
      <trkpt lat="43.460765" lon="1.625540">
        <ele>186.9</ele>
        <time>2014-02-04T10:49:12Z</time>
      </trkpt>
      <trkpt lat="43.460751" lon="1.625505">
        <ele>186.6</ele>
        <time>2014-02-04T10:49:56Z</time>
      </trkpt>
      <trkpt lat="43.460694" lon="1.625384">
        <ele>187.4</ele>
        <time>2014-02-04T10:50:10Z</time>
      </trkpt>
      <trkpt lat="43.460630" lon="1.625221">
        <ele>188.9</ele>
        <time>2014-02-04T10:51:17Z</time>
      </trkpt>
      <trkpt lat="43.460594" lon="1.625086">
        <ele>190.5</ele>
        <time>2014-02-04T10:51:32Z</time>
      </trkpt>
      <trkpt lat="43.460557" lon="1.624949">
        <ele>192.2</ele>
        <time>2014-02-04T10:51:47Z</time>
      </trkpt>
      <trkpt lat="43.460507" lon="1.624823">
        <ele>193.6</ele>
        <time>2014-02-04T10:52:01Z</time>
      </trkpt>
      <trkpt lat="43.460467" lon="1.624696">
        <ele>194.9</ele>
        <time>2014-02-04T10:52:14Z</time>
      </trkpt>
      <trkpt lat="43.460432" lon="1.624570">
        <ele>196.7</ele>
        <time>2014-02-04T10:52:28Z</time>
      </trkpt>
      <trkpt lat="43.460410" lon="1.624435">
        <ele>198.6</ele>
        <time>2014-02-04T10:52:43Z</time>
      </trkpt>
      <trkpt lat="43.460371" lon="1.624365">
        <ele>200.8</ele>
        <time>2014-02-04T10:53:14Z</time>
      </trkpt>
      <trkpt lat="43.460334" lon="1.624226">
        <ele>201.9</ele>
        <time>2014-02-04T10:53:31Z</time>
      </trkpt>
      <trkpt lat="43.460276" lon="1.624107">
        <ele>203.7</ele>
        <time>2014-02-04T10:53:45Z</time>
      </trkpt>
      <trkpt lat="43.460206" lon="1.624012">
        <ele>205.5</ele>
        <time>2014-02-04T10:53:59Z</time>
      </trkpt>
      <trkpt lat="43.460156" lon="1.623898">
        <ele>207.7</ele>
        <time>2014-02-04T10:54:16Z</time>
      </trkpt>
      <trkpt lat="43.460096" lon="1.623801">
        <ele>209.3</ele>
        <time>2014-02-04T10:54:33Z</time>
      </trkpt>
      <trkpt lat="43.460007" lon="1.623716">
        <ele>210.4</ele>
        <time>2014-02-04T10:54:49Z</time>
      </trkpt>
      <trkpt lat="43.459967" lon="1.623584">
        <ele>210.8</ele>
        <time>2014-02-04T10:55:02Z</time>
      </trkpt>
      <trkpt lat="43.459920" lon="1.623445">
        <ele>211.7</ele>
        <time>2014-02-04T10:55:14Z</time>
      </trkpt>
      <trkpt lat="43.459863" lon="1.623319">
        <ele>212.4</ele>
        <time>2014-02-04T10:55:25Z</time>
      </trkpt>
      <trkpt lat="43.459815" lon="1.623204">
        <ele>212.9</ele>
        <time>2014-02-04T10:55:35Z</time>
      </trkpt>
      <trkpt lat="43.459759" lon="1.623087">
        <ele>212.9</ele>
        <time>2014-02-04T10:55:46Z</time>
      </trkpt>
      <trkpt lat="43.459738" lon="1.622963">
        <ele>213.5</ele>
        <time>2014-02-04T10:55:58Z</time>
      </trkpt>
      <trkpt lat="43.459667" lon="1.622842">
        <ele>213.5</ele>
        <time>2014-02-04T10:56:11Z</time>
      </trkpt>
      <trkpt lat="43.459601" lon="1.622718">
        <ele>212.9</ele>
        <time>2014-02-04T10:56:23Z</time>
      </trkpt>
      <trkpt lat="43.459526" lon="1.622606">
        <ele>212.6</ele>
        <time>2014-02-04T10:56:34Z</time>
      </trkpt>
      <trkpt lat="43.459449" lon="1.622552">
        <ele>211.8</ele>
        <time>2014-02-04T10:56:44Z</time>
      </trkpt>
      <trkpt lat="43.459383" lon="1.622453">
        <ele>211.3</ele>
        <time>2014-02-04T10:56:55Z</time>
      </trkpt>
      <trkpt lat="43.459313" lon="1.622353">
        <ele>210.9</ele>
        <time>2014-02-04T10:57:06Z</time>
      </trkpt>
      <trkpt lat="43.459244" lon="1.622251">
        <ele>210.6</ele>
        <time>2014-02-04T10:57:17Z</time>
      </trkpt>
      <trkpt lat="43.459187" lon="1.622158">
        <ele>210.2</ele>
        <time>2014-02-04T10:57:28Z</time>
      </trkpt>
      <trkpt lat="43.459128" lon="1.622043">
        <ele>209.9</ele>
        <time>2014-02-04T10:57:39Z</time>
      </trkpt>
      <trkpt lat="43.459072" lon="1.621935">
        <ele>209.5</ele>
        <time>2014-02-04T10:57:51Z</time>
      </trkpt>
      <trkpt lat="43.459036" lon="1.621927">
        <ele>209.1</ele>
        <time>2014-02-04T10:58:40Z</time>
        <name>Lantarese</name>
      </trkpt>
      <trkpt lat="43.458938" lon="1.621945">
        <ele>209.1</ele>
        <time>2014-02-04T10:58:50Z</time>
      </trkpt>
      <trkpt lat="43.458844" lon="1.621988">
        <ele>209.3</ele>
        <time>2014-02-04T10:59:00Z</time>
      </trkpt>
      <trkpt lat="43.458745" lon="1.622020">
        <ele>209.5</ele>
        <time>2014-02-04T10:59:12Z</time>
      </trkpt>
      <trkpt lat="43.458661" lon="1.622065">
        <ele>209.5</ele>
        <time>2014-02-04T10:59:22Z</time>
      </trkpt>
      <trkpt lat="43.458573" lon="1.622110">
        <ele>208.9</ele>
        <time>2014-02-04T10:59:32Z</time>
      </trkpt>
      <trkpt lat="43.458468" lon="1.622149">
        <ele>209.4</ele>
        <time>2014-02-04T10:59:49Z</time>
      </trkpt>
      <trkpt lat="43.458383" lon="1.622193">
        <ele>209.5</ele>
        <time>2014-02-04T10:59:59Z</time>
      </trkpt>
      <trkpt lat="43.458281" lon="1.622246">
        <ele>209.6</ele>
        <time>2014-02-04T11:00:09Z</time>
      </trkpt>
      <trkpt lat="43.458168" lon="1.622281">
        <ele>209.8</ele>
        <time>2014-02-04T11:00:20Z</time>
      </trkpt>
      <trkpt lat="43.458072" lon="1.622334">
        <ele>209.2</ele>
        <time>2014-02-04T11:00:31Z</time>
      </trkpt>
      <trkpt lat="43.457979" lon="1.622393">
        <ele>208.8</ele>
        <time>2014-02-04T11:00:42Z</time>
      </trkpt>
      <trkpt lat="43.457902" lon="1.622449">
        <ele>207.7</ele>
        <time>2014-02-04T11:00:53Z</time>
      </trkpt>
      <trkpt lat="43.457796" lon="1.622505">
        <ele>206.9</ele>
        <time>2014-02-04T11:01:06Z</time>
      </trkpt>
      <trkpt lat="43.457712" lon="1.622565">
        <ele>206.2</ele>
        <time>2014-02-04T11:01:19Z</time>
      </trkpt>
      <trkpt lat="43.457621" lon="1.622631">
        <ele>205.4</ele>
        <time>2014-02-04T11:01:35Z</time>
      </trkpt>
      <trkpt lat="43.457535" lon="1.622672">
        <ele>204.8</ele>
        <time>2014-02-04T11:01:47Z</time>
      </trkpt>
      <trkpt lat="43.457472" lon="1.622729">
        <ele>204.4</ele>
        <time>2014-02-04T11:02:04Z</time>
      </trkpt>
      <trkpt lat="43.457406" lon="1.622768">
        <ele>204.0</ele>
        <time>2014-02-04T11:03:21Z</time>
      </trkpt>
      <trkpt lat="43.457366" lon="1.622765">
        <ele>203.8</ele>
        <time>2014-02-04T11:03:51Z</time>
      </trkpt>
      <trkpt lat="43.457277" lon="1.622825">
        <ele>203.8</ele>
        <time>2014-02-04T11:04:26Z</time>
      </trkpt>
      <trkpt lat="43.457171" lon="1.622880">
        <ele>203.3</ele>
        <time>2014-02-04T11:05:03Z</time>
      </trkpt>
      <trkpt lat="43.457040" lon="1.622906">
        <ele>203.6</ele>
        <time>2014-02-04T11:05:15Z</time>
      </trkpt>
      <trkpt lat="43.456945" lon="1.622953">
        <ele>203.2</ele>
        <time>2014-02-04T11:05:26Z</time>
      </trkpt>
      <trkpt lat="43.456848" lon="1.623008">
        <ele>202.4</ele>
        <time>2014-02-04T11:05:42Z</time>
      </trkpt>
      <trkpt lat="43.456745" lon="1.623067">
        <ele>201.7</ele>
        <time>2014-02-04T11:05:58Z</time>
      </trkpt>
      <trkpt lat="43.456634" lon="1.623101">
        <ele>200.9</ele>
        <time>2014-02-04T11:06:12Z</time>
      </trkpt>
      <trkpt lat="43.456533" lon="1.623172">
        <ele>200.1</ele>
        <time>2014-02-04T11:06:25Z</time>
      </trkpt>
      <trkpt lat="43.456425" lon="1.623240">
        <ele>199.1</ele>
        <time>2014-02-04T11:06:38Z</time>
      </trkpt>
      <trkpt lat="43.456318" lon="1.623304">
        <ele>197.9</ele>
        <time>2014-02-04T11:06:54Z</time>
      </trkpt>
      <trkpt lat="43.456255" lon="1.623356">
        <ele>197.2</ele>
        <time>2014-02-04T11:07:27Z</time>
      </trkpt>
      <trkpt lat="43.456141" lon="1.623378">
        <ele>196.9</ele>
        <time>2014-02-04T11:07:40Z</time>
      </trkpt>
      <trkpt lat="43.456033" lon="1.623417">
        <ele>196.0</ele>
        <time>2014-02-04T11:07:54Z</time>
      </trkpt>
      <trkpt lat="43.455926" lon="1.623459">
        <ele>195.4</ele>
        <time>2014-02-04T11:08:05Z</time>
      </trkpt>
      <trkpt lat="43.455839" lon="1.623517">
        <ele>195.0</ele>
        <time>2014-02-04T11:08:16Z</time>
      </trkpt>
      <trkpt lat="43.455741" lon="1.623567">
        <ele>194.7</ele>
        <time>2014-02-04T11:08:29Z</time>
      </trkpt>
      <trkpt lat="43.455650" lon="1.623588">
        <ele>194.2</ele>
        <time>2014-02-04T11:08:41Z</time>
      </trkpt>
      <trkpt lat="43.455553" lon="1.623643">
        <ele>193.7</ele>
        <time>2014-02-04T11:08:53Z</time>
      </trkpt>
      <trkpt lat="43.455448" lon="1.623704">
        <ele>193.2</ele>
        <time>2014-02-04T11:09:03Z</time>
      </trkpt>
      <trkpt lat="43.455356" lon="1.623751">
        <ele>192.7</ele>
        <time>2014-02-04T11:09:13Z</time>
      </trkpt>
      <trkpt lat="43.455269" lon="1.623813">
        <ele>192.3</ele>
        <time>2014-02-04T11:09:23Z</time>
      </trkpt>
      <trkpt lat="43.455169" lon="1.623867">
        <ele>191.7</ele>
        <time>2014-02-04T11:09:35Z</time>
      </trkpt>
      <trkpt lat="43.455058" lon="1.623934">
        <ele>191.5</ele>
        <time>2014-02-04T11:09:47Z</time>
      </trkpt>
      <trkpt lat="43.454959" lon="1.623978">
        <ele>191.5</ele>
        <time>2014-02-04T11:09:58Z</time>
      </trkpt>
      <trkpt lat="43.454867" lon="1.624019">
        <ele>191.6</ele>
        <time>2014-02-04T11:10:09Z</time>
      </trkpt>
      <trkpt lat="43.454777" lon="1.624071">
        <ele>192.0</ele>
        <time>2014-02-04T11:10:20Z</time>
      </trkpt>
      <trkpt lat="43.454681" lon="1.624134">
        <ele>192.6</ele>
        <time>2014-02-04T11:10:30Z</time>
      </trkpt>
      <trkpt lat="43.454636" lon="1.624094">
        <ele>193.0</ele>
        <time>2014-02-04T11:11:13Z</time>
      </trkpt>
      <trkpt lat="43.454619" lon="1.623970">
        <ele>193.2</ele>
        <time>2014-02-04T11:11:24Z</time>
      </trkpt>
      <trkpt lat="43.454576" lon="1.623848">
        <ele>194.3</ele>
        <time>2014-02-04T11:11:35Z</time>
      </trkpt>
      <trkpt lat="43.454533" lon="1.623734">
        <ele>194.5</ele>
        <time>2014-02-04T11:11:45Z</time>
      </trkpt>
      <trkpt lat="43.454492" lon="1.623621">
        <ele>194.5</ele>
        <time>2014-02-04T11:11:54Z</time>
      </trkpt>
      <trkpt lat="43.454448" lon="1.623499">
        <ele>194.8</ele>
        <time>2014-02-04T11:12:05Z</time>
      </trkpt>
      <trkpt lat="43.454368" lon="1.623441">
        <ele>194.5</ele>
        <time>2014-02-04T11:12:18Z</time>
      </trkpt>
      <trkpt lat="43.454291" lon="1.623395">
        <ele>194.1</ele>
        <time>2014-02-04T11:14:15Z</time>
      </trkpt>
      <trkpt lat="43.454379" lon="1.623413">
        <ele>194.3</ele>
        <time>2014-02-04T11:15:21Z</time>
      </trkpt>
      <trkpt lat="43.454452" lon="1.623531">
        <ele>194.6</ele>
        <time>2014-02-04T11:15:34Z</time>
      </trkpt>
      <trkpt lat="43.454517" lon="1.623670">
        <ele>194.9</ele>
        <time>2014-02-04T11:15:45Z</time>
      </trkpt>
      <trkpt lat="43.454528" lon="1.623784">
        <ele>194.9</ele>
        <time>2014-02-04T11:16:37Z</time>
      </trkpt>
      <trkpt lat="43.454585" lon="1.623908">
        <ele>194.6</ele>
        <time>2014-02-04T11:16:46Z</time>
      </trkpt>
      <trkpt lat="43.454632" lon="1.624032">
        <ele>194.5</ele>
        <time>2014-02-04T11:16:56Z</time>
      </trkpt>
      <trkpt lat="43.454620" lon="1.624162">
        <ele>193.4</ele>
        <time>2014-02-04T11:17:05Z</time>
      </trkpt>
      <trkpt lat="43.454557" lon="1.624248">
        <ele>192.5</ele>
        <time>2014-02-04T11:17:14Z</time>
      </trkpt>
      <trkpt lat="43.454489" lon="1.624332">
        <ele>191.8</ele>
        <time>2014-02-04T11:17:23Z</time>
      </trkpt>
      <trkpt lat="43.454384" lon="1.624380">
        <ele>191.0</ele>
        <time>2014-02-04T11:17:33Z</time>
      </trkpt>
      <trkpt lat="43.454293" lon="1.624439">
        <ele>190.3</ele>
        <time>2014-02-04T11:17:43Z</time>
      </trkpt>
      <trkpt lat="43.454218" lon="1.624507">
        <ele>189.4</ele>
        <time>2014-02-04T11:17:52Z</time>
      </trkpt>
      <trkpt lat="43.454144" lon="1.624581">
        <ele>188.5</ele>
        <time>2014-02-04T11:18:01Z</time>
      </trkpt>
      <trkpt lat="43.454058" lon="1.624636">
        <ele>187.8</ele>
        <time>2014-02-04T11:18:10Z</time>
      </trkpt>
      <trkpt lat="43.453970" lon="1.624694">
        <ele>187.1</ele>
        <time>2014-02-04T11:18:19Z</time>
      </trkpt>
      <trkpt lat="43.453876" lon="1.624753">
        <ele>186.3</ele>
        <time>2014-02-04T11:18:29Z</time>
      </trkpt>
      <trkpt lat="43.453787" lon="1.624817">
        <ele>185.2</ele>
        <time>2014-02-04T11:18:39Z</time>
      </trkpt>
      <trkpt lat="43.453697" lon="1.624894">
        <ele>183.9</ele>
        <time>2014-02-04T11:18:49Z</time>
      </trkpt>
      <trkpt lat="43.453607" lon="1.624965">
        <ele>182.7</ele>
        <time>2014-02-04T11:18:59Z</time>
      </trkpt>
      <trkpt lat="43.453521" lon="1.625034">
        <ele>181.6</ele>
        <time>2014-02-04T11:19:09Z</time>
      </trkpt>
      <trkpt lat="43.453431" lon="1.625091">
        <ele>180.8</ele>
        <time>2014-02-04T11:19:18Z</time>
      </trkpt>
      <trkpt lat="43.453336" lon="1.625158">
        <ele>179.7</ele>
        <time>2014-02-04T11:19:27Z</time>
      </trkpt>
      <trkpt lat="43.453234" lon="1.625229">
        <ele>178.4</ele>
        <time>2014-02-04T11:19:37Z</time>
      </trkpt>
      <trkpt lat="43.453148" lon="1.625290">
        <ele>177.5</ele>
        <time>2014-02-04T11:19:47Z</time>
      </trkpt>
      <trkpt lat="43.453071" lon="1.625384">
        <ele>175.9</ele>
        <time>2014-02-04T11:19:59Z</time>
      </trkpt>
      <trkpt lat="43.452964" lon="1.625468">
        <ele>174.5</ele>
        <time>2014-02-04T11:20:11Z</time>
      </trkpt>
      <trkpt lat="43.452873" lon="1.625557">
        <ele>173.6</ele>
        <time>2014-02-04T11:20:23Z</time>
      </trkpt>
      <trkpt lat="43.452784" lon="1.625640">
        <ele>172.8</ele>
        <time>2014-02-04T11:20:34Z</time>
      </trkpt>
      <trkpt lat="43.452702" lon="1.625710">
        <ele>172.2</ele>
        <time>2014-02-04T11:20:43Z</time>
      </trkpt>
      <trkpt lat="43.452617" lon="1.625773">
        <ele>171.6</ele>
        <time>2014-02-04T11:20:52Z</time>
      </trkpt>
      <trkpt lat="43.452532" lon="1.625839">
        <ele>170.9</ele>
        <time>2014-02-04T11:21:02Z</time>
      </trkpt>
      <trkpt lat="43.452442" lon="1.625867">
        <ele>170.1</ele>
        <time>2014-02-04T11:21:11Z</time>
      </trkpt>
      <trkpt lat="43.452330" lon="1.625889">
        <ele>169.5</ele>
        <time>2014-02-04T11:21:21Z</time>
      </trkpt>
      <trkpt lat="43.452222" lon="1.625873">
        <ele>169.0</ele>
        <time>2014-02-04T11:21:31Z</time>
      </trkpt>
      <trkpt lat="43.452118" lon="1.625819">
        <ele>168.2</ele>
        <time>2014-02-04T11:21:42Z</time>
      </trkpt>
      <trkpt lat="43.451986" lon="1.625793">
        <ele>168.2</ele>
        <time>2014-02-04T11:21:56Z</time>
      </trkpt>
      <trkpt lat="43.451911" lon="1.625906">
        <ele>167.6</ele>
        <time>2014-02-04T11:22:10Z</time>
      </trkpt>
      <trkpt lat="43.451870" lon="1.626056">
        <ele>167.4</ele>
        <time>2014-02-04T11:22:25Z</time>
      </trkpt>
      <trkpt lat="43.451842" lon="1.626253">
        <ele>167.6</ele>
        <time>2014-02-04T11:22:37Z</time>
      </trkpt>
      <trkpt lat="43.451857" lon="1.626439">
        <ele>167.5</ele>
        <time>2014-02-04T11:22:51Z</time>
      </trkpt>
      <trkpt lat="43.451813" lon="1.626520">
        <ele>167.7</ele>
        <time>2014-02-04T11:23:13Z</time>
      </trkpt>
    </trkseg>
  </trk>
</gpx>

